createdAt,value
2018-03-30T08:30:19.417Z,1642.50
2018-03-30T08:30:48.834Z,2002.50
2018-03-30T08:31:48.845Z,1929.38
2018-03-30T08:32:48.837Z,1828.13
2018-03-30T08:33:48.860Z,1732.50
2018-03-30T08:34:48.858Z,1805.63
2018-03-30T08:36:14.931Z,1923.75
2018-03-30T08:36:49.518Z,2165.63
2018-03-30T08:37:48.863Z,2250.00
2018-03-30T08:38:48.891Z,2160.00
2018-03-30T08:39:48.872Z,2221.88
2018-03-30T08:40:48.874Z,1603.13
2018-03-30T08:41:48.961Z,1406.25
2018-03-30T08:42:49.268Z,1305.00
2018-03-30T08:43:48.868Z,1940.63
2018-03-30T08:44:48.875Z,2199.38
2018-03-30T08:45:48.900Z,1996.88
2018-03-30T08:46:48.894Z,1732.50
2018-03-30T08:49:37.692Z,1366.88
2018-03-30T08:50:24.396Z,1771.88
2018-03-30T08:51:23.536Z,2019.38
2018-03-30T08:52:32.073Z,2300.63
2018-03-30T08:53:23.548Z,2053.13
2018-03-30T08:54:23.542Z,2458.13
2018-03-30T08:55:23.582Z,2413.13
2018-03-30T08:56:23.554Z,2385.00
2018-03-30T08:57:23.558Z,2255.63
2018-03-30T08:58:25.209Z,2266.88
2018-03-30T08:59:23.599Z,2137.50
2018-03-30T09:00:23.563Z,2221.88
2018-03-30T09:01:23.795Z,2148.75
2018-03-30T09:02:23.585Z,2143.13
2018-03-30T09:03:46.192Z,2160.00
2018-03-30T09:04:23.591Z,1355.63
2018-03-30T09:05:23.595Z,1186.88
2018-03-30T09:06:23.624Z,1395.00
2018-03-30T09:07:23.599Z,1372.50
2018-03-30T09:08:37.667Z,2193.75
2018-03-30T09:09:23.926Z,2340.00
2018-03-30T09:10:23.626Z,2351.25
2018-03-30T09:11:23.630Z,2199.38
2018-03-30T09:12:23.622Z,1906.88
2018-03-30T09:13:23.710Z,2137.50
2018-03-30T09:15:03.180Z,2272.50
2018-03-30T09:15:24.058Z,2227.50
2018-03-30T09:16:23.643Z,2261.25
2018-03-30T09:17:23.676Z,2306.25
2018-03-30T09:18:23.684Z,2351.25
2018-03-30T09:22:29.690Z,2323.13
2018-03-30T09:26:31.633Z,2446.88
2018-03-30T09:27:31.130Z,2435.63
2018-03-30T09:28:42.122Z,2638.13
2018-03-30T09:29:31.137Z,2508.75
2018-03-30T09:30:31.134Z,2407.50
2018-03-30T09:31:31.151Z,2581.88
2018-03-30T09:32:31.181Z,2520.00
2018-03-30T09:33:32.051Z,2441.25
2018-03-30T09:34:31.201Z,2508.75
2018-03-30T09:35:31.204Z,2671.88
2018-03-30T09:36:31.210Z,2705.63
2018-03-30T09:37:31.256Z,2716.88
2018-03-30T09:40:08.536Z,2520.00
2018-03-30T09:41:02.945Z,2463.75
2018-03-30T09:42:02.969Z,2368.13
2018-03-30T09:43:02.946Z,2300.63
2018-03-30T09:46:13.237Z,2463.75
2018-03-30T09:46:35.107Z,2396.25
2018-03-30T09:47:35.117Z,2581.88
2018-03-30T09:51:40.154Z,2542.50
2018-03-30T09:52:38.422Z,2553.75
2018-03-30T09:54:02.570Z,2750.63
2018-03-30T09:54:38.465Z,3054.38
2018-03-30T09:55:38.494Z,2778.75
2018-03-30T09:56:38.468Z,2587.50
2018-03-30T09:57:39.105Z,2491.88
2018-03-30T09:58:38.547Z,2283.75
2018-03-30T09:59:38.523Z,2244.38
2018-03-30T10:00:38.537Z,2306.25
2018-03-30T10:01:38.532Z,2283.75
2018-03-30T10:02:38.537Z,2385.00
2018-03-30T10:05:10.698Z,2165.63
2018-03-30T10:06:10.681Z,2401.88
2018-03-30T10:07:10.670Z,2480.63
2018-03-30T10:08:10.670Z,2638.13
2018-03-30T10:09:10.739Z,2362.50
2018-03-30T10:10:10.722Z,2520.00
2018-03-30T10:11:10.700Z,2379.38
2018-03-30T10:12:10.698Z,2255.63
2018-03-30T10:13:10.728Z,2176.88
2018-03-30T10:16:05.541Z,2418.75
2018-03-30T10:17:05.487Z,2486.25
2018-03-30T10:18:05.551Z,2570.63
2018-03-30T10:19:20.893Z,2570.63
2018-03-30T10:20:05.542Z,2626.88
2018-03-30T10:21:05.543Z,2542.50
2018-03-30T10:22:05.550Z,2896.88
2018-03-30T10:23:05.555Z,2643.75
2018-03-30T10:24:09.016Z,2576.25
2018-03-30T10:25:05.583Z,2514.38
2018-03-30T10:26:05.632Z,2413.13
2018-03-30T10:27:05.610Z,2446.88
2018-03-30T10:28:05.618Z,2424.38
2018-03-30T10:29:05.618Z,2655.00
2018-03-30T10:31:46.896Z,2941.88
2018-03-30T10:32:38.475Z,2891.25
2018-03-30T10:33:38.492Z,1552.50
2018-03-30T10:36:15.265Z,1530.00
2018-03-30T10:37:15.306Z,3166.88
2018-03-30T10:38:15.274Z,3391.88
2018-03-30T10:39:26.407Z,1608.75
2018-03-30T10:40:15.298Z,2835.00
2018-03-30T10:41:15.303Z,3037.50
2018-03-30T10:42:15.318Z,1946.25
2018-03-30T10:43:16.235Z,3071.25
2018-03-30T10:44:23.293Z,3099.38
2018-03-30T10:45:15.349Z,3015.00
2018-03-30T10:46:15.376Z,1625.63
2018-03-30T10:47:15.369Z,1440.00
2018-03-30T10:48:15.398Z,2334.38
2018-03-30T10:49:17.311Z,3071.25
2018-03-30T10:50:15.407Z,3043.13
2018-03-30T10:51:15.414Z,3217.50
2018-03-30T10:52:27.769Z,3116.25
2018-03-30T10:53:15.437Z,2953.13
2018-03-30T10:57:51.802Z,1276.88
2018-03-30T10:58:46.243Z,1170.00
2018-03-30T10:59:46.331Z,1209.38
2018-03-30T11:00:46.249Z,1260.00
2018-03-30T11:01:46.274Z,1395.00
2018-03-30T11:02:46.257Z,3234.38
2018-03-30T11:03:46.691Z,3324.38
2018-03-30T11:04:51.399Z,2863.13
2018-03-30T11:05:46.833Z,3076.88
2018-03-30T11:06:46.311Z,3150.00
2018-03-30T11:07:46.306Z,3301.88
2018-03-30T11:08:46.333Z,3318.75
2018-03-30T11:09:49.463Z,3200.63
2018-03-30T11:10:46.414Z,2941.88
2018-03-30T11:11:46.374Z,2784.38
2018-03-30T11:12:46.408Z,2632.50
2018-03-30T11:13:46.379Z,2891.25
2018-03-30T11:15:07.440Z,2851.88
2018-03-30T11:15:46.408Z,3065.63
2018-03-30T11:16:46.436Z,3099.38
2018-03-30T11:17:46.436Z,3116.25
2018-03-30T11:18:46.567Z,1760.63
2018-03-30T11:19:51.942Z,3110.63
2018-03-30T11:20:46.449Z,1749.38
2018-03-30T11:21:46.480Z,1665.00
2018-03-30T11:22:46.854Z,1642.50
2018-03-30T11:23:46.508Z,2514.38
2018-03-30T11:26:48.239Z,1496.25
2018-03-30T11:27:46.392Z,1603.13
2018-03-30T11:28:46.388Z,1456.88
2018-03-30T11:29:48.316Z,1293.75
2018-03-30T11:30:46.421Z,1265.63
2018-03-30T11:31:46.439Z,1344.38
2018-03-30T11:32:46.416Z,1473.75
2018-03-30T11:33:46.467Z,1485.00
2018-03-30T11:34:47.718Z,3335.63
2018-03-30T11:35:46.473Z,1659.38
2018-03-30T11:36:46.470Z,1530.00
2018-03-30T11:37:46.455Z,1659.38
2018-03-30T11:38:47.262Z,3003.75
2018-03-30T11:39:47.241Z,3178.13
2018-03-30T11:40:54.296Z,3245.63
2018-03-30T11:41:46.515Z,1366.88
2018-03-30T11:42:46.508Z,2835.00
2018-03-30T11:43:46.535Z,3105.00
2018-03-30T11:44:46.546Z,2868.75
2018-03-30T11:45:47.313Z,2115.00
2018-03-30T11:46:46.559Z,2115.00
2018-03-30T11:47:46.613Z,1648.13
2018-03-30T11:48:46.584Z,2340.00
2018-03-30T11:49:46.591Z,2868.75
2018-03-30T11:51:07.645Z,3082.50
2018-03-30T11:51:46.628Z,3290.63
2018-03-30T11:52:46.606Z,3510.00
2018-03-30T11:53:46.615Z,1440.00
2018-03-30T11:54:46.787Z,1783.13
2018-03-30T11:55:46.644Z,1372.50
2018-03-30T11:56:46.642Z,2458.13
2018-03-30T11:57:46.682Z,3931.88
2018-03-30T11:58:49.336Z,3093.75
2018-03-30T12:01:18.750Z,2784.38
2018-03-30T12:02:18.766Z,2638.13
2018-03-30T12:03:18.774Z,2655.00
2018-03-30T12:04:18.782Z,2716.88
2018-03-30T12:05:19.621Z,2756.25
2018-03-30T12:06:18.802Z,2716.88
2018-03-30T12:07:18.817Z,2756.25
2018-03-30T12:08:18.814Z,2891.25
2018-03-30T12:09:18.858Z,3099.38
2018-03-30T12:10:43.877Z,3656.25
2018-03-30T12:11:18.872Z,3690.00
2018-03-30T12:12:18.869Z,3307.50
2018-03-30T12:13:18.909Z,2998.13
2018-03-30T12:14:18.918Z,2070.00
2018-03-30T12:15:18.926Z,2677.50
2018-03-30T12:16:38.002Z,2503.13
2018-03-30T12:17:18.935Z,2396.25
2018-03-30T12:18:18.966Z,2379.38
2018-03-30T12:19:19.237Z,2604.38
2018-03-30T12:20:19.001Z,2396.25
2018-03-30T12:21:19.650Z,2362.50
2018-03-30T12:22:19.074Z,2823.75
2018-03-30T12:23:19.043Z,3009.38
2018-03-30T12:24:19.059Z,2947.50
2018-03-30T12:25:19.058Z,2823.75
2018-03-30T12:26:37.506Z,2728.13
2018-03-30T12:27:19.115Z,2790.00
2018-03-30T12:28:19.119Z,1867.50
2018-03-30T12:29:19.586Z,1350.00
2018-03-30T12:30:19.396Z,2503.13
2018-03-30T12:31:33.454Z,1113.75
2018-03-30T12:32:19.172Z,2109.38
2018-03-30T12:33:19.176Z,1580.63
2018-03-30T12:34:30.354Z,2418.75
2018-03-30T12:35:19.192Z,2334.38
2018-03-30T12:36:40.534Z,2334.38
2018-03-30T12:37:19.236Z,2306.25
2018-03-30T12:38:19.236Z,2278.13
2018-03-30T12:39:19.259Z,2131.88
2018-03-30T12:40:19.267Z,2278.13
2018-03-30T12:41:19.318Z,2266.88
2018-03-30T12:42:19.285Z,2193.75
2018-03-30T12:43:19.311Z,2221.88
2018-03-30T12:44:19.307Z,2216.25
2018-03-30T12:45:19.318Z,2193.75
2018-03-30T12:46:19.731Z,2193.75
2018-03-30T12:47:19.349Z,2221.88
2018-03-30T12:48:19.357Z,2272.50
2018-03-30T12:49:19.362Z,2233.13
2018-03-30T12:50:20.313Z,2289.38
2018-03-30T12:51:19.463Z,2323.13
2018-03-30T12:52:19.418Z,2323.13
2018-03-30T12:53:19.432Z,2486.25
2018-03-30T12:54:19.429Z,2373.75
2018-03-30T12:55:20.584Z,2475.00
2018-03-30T12:56:25.037Z,2559.38
2018-03-30T12:57:19.977Z,2570.63
2018-03-30T12:58:19.490Z,2356.88
2018-03-30T12:59:19.503Z,2188.13
2018-03-30T13:00:19.522Z,2373.75
2018-03-30T13:01:19.523Z,2300.63
2018-03-30T13:02:38.026Z,2413.13
2018-03-30T13:03:19.781Z,2407.50
2018-03-30T13:04:19.588Z,2430.00
2018-03-30T13:05:20.458Z,2390.63
2018-03-30T13:06:19.607Z,2497.50
2018-03-30T13:07:30.510Z,2491.88
2018-03-30T13:08:19.647Z,2441.25
2018-03-30T13:09:19.676Z,2435.63
2018-03-30T13:10:19.652Z,2413.13
2018-03-30T13:11:19.656Z,2413.13
2018-03-30T13:12:25.031Z,2278.13
2018-03-30T13:13:19.680Z,2092.50
2018-03-30T13:14:19.738Z,2188.13
2018-03-30T13:15:19.719Z,2137.50
2018-03-30T13:16:19.731Z,2210.63
2018-03-30T13:17:48.597Z,928.13
2018-03-30T13:18:19.745Z,2126.25
2018-03-30T13:19:19.779Z,2013.75
2018-03-30T13:20:19.783Z,2098.13
2018-03-30T13:21:19.781Z,2098.13
2018-03-30T13:22:21.505Z,2115.00
2018-03-30T13:23:19.842Z,2143.13
2018-03-30T13:24:19.808Z,2120.63
2018-03-30T13:25:19.923Z,2098.13
2018-03-30T13:26:20.424Z,2131.88
2018-03-30T13:29:15.656Z,984.38
2018-03-30T13:29:53.043Z,1805.63
2018-03-30T13:30:53.055Z,2126.25
2018-03-30T13:31:53.068Z,1985.63
2018-03-30T13:34:24.749Z,1957.50
2018-03-30T13:35:24.706Z,2165.63
2018-03-30T13:36:24.744Z,2109.38
2018-03-30T13:37:24.766Z,1766.25
2018-03-30T13:38:48.255Z,1468.13
2018-03-30T13:39:24.769Z,1620.00
2018-03-30T13:40:24.775Z,2216.25
2018-03-30T13:41:24.799Z,2458.13
2018-03-30T13:42:27.874Z,1215.00
2018-03-30T13:43:24.799Z,2469.38
2018-03-30T13:44:24.840Z,2210.63
2018-03-30T13:45:24.833Z,2086.88
2018-03-30T13:46:25.215Z,1659.38
2018-03-30T13:47:24.859Z,1445.63
2018-03-30T13:48:24.917Z,1231.88
2018-03-30T13:49:24.865Z,984.38
2018-03-30T13:50:24.876Z,900.00
2018-03-30T13:51:24.902Z,1755.00
2018-03-30T13:54:21.192Z,2480.63
2018-03-30T13:55:20.162Z,2503.13
2018-03-30T13:56:20.185Z,2295.00
2018-03-30T13:57:20.191Z,1310.63
2018-03-30T13:58:20.245Z,1822.50
2018-03-30T13:59:20.198Z,1051.88
2018-03-30T14:00:20.194Z,1524.38
2018-03-30T14:01:20.218Z,1035.00
2018-03-30T14:02:20.236Z,1051.88
2018-03-30T14:03:42.184Z,1018.13
2018-03-30T14:04:20.249Z,928.13
2018-03-30T14:05:20.249Z,973.13
2018-03-30T14:06:20.261Z,1046.25
2018-03-30T14:07:20.266Z,1164.38
2018-03-30T14:08:20.691Z,1951.88
2018-03-30T14:09:20.281Z,2041.88
2018-03-30T14:10:20.313Z,1473.75
2018-03-30T14:11:20.431Z,1845.00
2018-03-30T14:12:20.283Z,1710.00
2018-03-30T14:13:21.163Z,1721.25
2018-03-30T14:14:42.199Z,1693.13
2018-03-30T14:15:20.323Z,1389.38
2018-03-30T14:16:20.318Z,1580.63
2018-03-30T14:17:20.337Z,1130.63
2018-03-30T14:18:20.335Z,1063.13
2018-03-30T14:19:22.205Z,1035.00
2018-03-30T14:20:20.350Z,1305.00
2018-03-30T14:21:20.373Z,1158.75
2018-03-30T14:22:20.350Z,1355.63
2018-03-30T14:23:49.187Z,1305.00
2018-03-30T14:24:20.379Z,1395.00
2018-03-30T14:25:20.384Z,1496.25
2018-03-30T14:26:20.381Z,956.25
2018-03-30T14:27:20.377Z,894.38
2018-03-30T14:28:34.678Z,877.50
2018-03-30T14:29:20.458Z,888.75
2018-03-30T14:30:20.413Z,888.75
2018-03-30T14:31:20.402Z,871.88
2018-03-30T14:32:27.583Z,866.25
2018-03-30T14:33:31.185Z,883.13
2018-03-30T14:34:21.884Z,1057.50
2018-03-30T14:35:42.135Z,1080.00
2018-03-30T14:36:20.850Z,995.63
2018-03-30T14:37:20.444Z,1631.25
2018-03-30T14:38:55.684Z,1777.50
2018-03-30T14:39:20.454Z,1546.88
2018-03-30T14:40:20.451Z,1226.25
2018-03-30T14:41:20.459Z,1344.38
2018-03-30T14:42:20.944Z,1518.75
2018-03-30T14:43:20.459Z,1383.75
2018-03-30T14:44:20.528Z,1490.63
2018-03-30T14:45:20.473Z,1541.25
2018-03-30T14:46:20.472Z,1507.50
2018-03-30T14:47:20.513Z,1496.25
2018-03-30T14:48:20.504Z,1260.00
2018-03-30T14:49:21.418Z,1687.50
2018-03-30T14:50:20.524Z,1839.38
2018-03-30T14:51:20.514Z,1884.38
2018-03-30T14:52:20.526Z,1693.13
2018-03-30T14:53:21.179Z,1653.75
2018-03-30T14:56:03.764Z,1378.13
2018-03-30T14:57:02.815Z,1344.38
2018-03-30T14:58:02.828Z,1282.50
2018-03-30T14:59:05.000Z,1130.63
2018-03-30T15:00:02.970Z,1175.63
2018-03-30T15:01:02.822Z,1006.88
2018-03-30T15:02:02.823Z,939.38
2018-03-30T15:03:02.838Z,804.38
2018-03-30T15:04:02.841Z,798.75
2018-03-30T15:05:42.287Z,804.38
2018-03-30T15:06:02.896Z,770.63
2018-03-30T15:07:03.372Z,776.25
2018-03-30T15:08:02.844Z,810.00
2018-03-30T15:09:02.873Z,832.50
2018-03-30T15:10:06.927Z,950.63
2018-03-30T15:11:02.868Z,950.63
2018-03-30T15:12:02.890Z,961.88
2018-03-30T15:13:03.337Z,961.88
2018-03-30T15:14:02.895Z,916.88
2018-03-30T15:15:08.316Z,838.13
2018-03-30T15:19:09.288Z,776.25
2018-03-30T15:20:03.442Z,753.75
2018-03-30T15:21:03.437Z,736.88
2018-03-30T15:22:03.453Z,720.00
2018-03-30T15:23:03.440Z,708.75
2018-03-30T15:24:03.454Z,703.13
2018-03-30T15:25:21.805Z,691.88
2018-03-30T15:26:03.459Z,691.88
2018-03-30T15:27:03.453Z,686.25
2018-03-30T15:28:03.460Z,669.38
2018-03-30T15:29:03.480Z,669.38
2018-03-30T15:30:24.805Z,669.38
2018-03-30T15:31:03.484Z,663.75
2018-03-30T15:32:03.484Z,663.75
2018-03-30T15:33:03.487Z,658.13
2018-03-30T15:34:03.505Z,652.50
2018-03-30T15:35:05.268Z,652.50
2018-03-30T15:36:03.486Z,646.88
2018-03-30T15:37:03.515Z,635.63
2018-03-30T15:38:03.509Z,618.75
2018-03-30T15:39:03.521Z,607.50
2018-03-30T15:40:25.280Z,601.88
2018-03-30T15:41:03.516Z,601.88
2018-03-30T15:42:03.529Z,601.88
2018-03-30T15:43:03.520Z,601.88
2018-03-30T15:44:03.525Z,590.63
2018-03-30T15:45:04.268Z,579.38
2018-03-30T15:46:03.522Z,573.75
2018-03-30T15:47:03.635Z,568.13
2018-03-30T15:48:03.560Z,568.13
2018-03-30T15:49:03.547Z,573.75
2018-03-30T15:50:03.801Z,579.38
2018-03-30T15:51:03.546Z,579.38
2018-03-30T15:52:03.547Z,590.63
2018-03-30T15:53:03.554Z,585.00
2018-03-30T15:54:03.551Z,585.00
2018-03-30T15:55:03.629Z,573.75
2018-03-30T15:56:03.575Z,568.13
2018-03-30T15:57:03.571Z,556.88
2018-03-30T15:58:03.561Z,551.25
2018-03-30T15:59:03.588Z,540.00
2018-03-30T16:00:03.641Z,528.75
2018-03-30T16:01:04.378Z,517.50
2018-03-30T16:02:03.595Z,506.25
2018-03-30T16:03:03.584Z,500.63
2018-03-30T16:04:03.589Z,495.00
2018-03-30T16:05:03.794Z,483.75
2018-03-30T16:06:03.596Z,478.13
2018-03-30T16:07:03.811Z,466.88
2018-03-30T16:08:03.596Z,455.63
2018-03-30T16:09:03.601Z,438.75
2018-03-30T16:10:11.286Z,421.88
2018-03-30T16:11:03.614Z,416.25
2018-03-30T16:12:04.546Z,399.38
2018-03-30T16:13:03.605Z,393.75
2018-03-30T16:14:03.612Z,388.13
2018-03-30T16:15:05.283Z,382.50
2018-03-30T16:16:03.627Z,382.50
2018-03-30T16:17:03.629Z,382.50
2018-03-30T16:18:03.612Z,382.50
2018-03-30T16:19:22.791Z,388.13
2018-03-30T16:20:21.815Z,388.13
2018-03-30T16:21:03.650Z,388.13
2018-03-30T16:22:03.659Z,388.13
2018-03-30T16:23:03.662Z,388.13
2018-03-30T16:24:03.701Z,388.13
2018-03-30T16:25:03.733Z,393.75
2018-03-30T16:26:03.668Z,388.13
2018-03-30T16:27:03.663Z,388.13
2018-03-30T16:28:03.657Z,393.75
2018-03-30T16:29:03.668Z,382.50
2018-03-30T16:30:03.662Z,376.88
2018-03-30T16:31:05.353Z,376.88
2018-03-30T16:32:03.666Z,371.25
2018-03-30T16:33:04.564Z,371.25
2018-03-30T16:34:03.670Z,360.00
2018-03-30T16:35:03.666Z,343.13
2018-03-30T16:36:21.796Z,315.00
2018-03-30T16:37:03.679Z,320.63
2018-03-30T16:38:03.693Z,309.38
2018-03-30T16:39:03.666Z,298.13
2018-03-30T16:40:03.789Z,303.75
2018-03-30T16:41:03.705Z,298.13
2018-03-30T16:42:08.832Z,292.50
2018-03-30T16:43:03.711Z,275.63
2018-03-30T16:44:03.707Z,258.75
2018-03-30T16:45:03.716Z,247.50
2018-03-30T16:46:03.705Z,230.63
2018-03-30T16:47:03.748Z,219.38
2018-03-30T16:48:03.694Z,196.88
2018-03-30T16:49:03.768Z,185.63
2018-03-30T16:50:03.706Z,168.75
2018-03-30T16:51:03.703Z,157.50
2018-03-30T16:52:11.336Z,151.88
2018-03-30T16:53:03.720Z,146.25
2018-03-30T16:54:03.700Z,140.63
2018-03-30T16:55:03.728Z,135.00
2018-03-30T16:56:03.723Z,135.00
2018-03-30T16:57:11.338Z,129.38
2018-03-30T16:58:03.733Z,123.75
2018-03-30T16:59:05.293Z,123.75
2018-03-30T17:00:03.749Z,118.13
2018-03-30T17:01:03.734Z,112.50
2018-03-30T17:02:04.318Z,112.50
2018-03-30T17:03:03.982Z,112.50
2018-03-30T17:04:03.750Z,106.88
2018-03-30T17:05:03.736Z,106.88
2018-03-30T17:06:03.750Z,106.88
2018-03-30T17:15:18.960Z,95.63
2018-03-30T17:16:18.876Z,90.00
2018-03-30T17:17:18.896Z,90.00
2018-03-30T17:18:24.427Z,90.00
2018-03-30T17:19:18.882Z,84.38
2018-03-30T17:20:18.884Z,84.38
2018-03-30T17:21:18.881Z,78.75
2018-03-30T17:22:40.487Z,78.75
2018-03-30T17:23:18.874Z,73.13
2018-03-30T17:24:18.873Z,73.13
2018-03-30T17:25:18.879Z,67.50
2018-03-30T17:26:18.910Z,61.88
2018-03-30T17:27:18.876Z,61.88
2018-03-30T17:29:53.655Z,50.63
2018-03-30T17:30:53.519Z,50.63
2018-03-30T17:31:53.530Z,45.00
2018-03-30T17:33:25.134Z,39.38
2018-03-30T17:33:53.495Z,39.38
2018-03-30T17:34:53.975Z,33.75
2018-03-30T17:35:53.496Z,28.13
2018-03-30T17:36:53.496Z,28.13
2018-03-30T17:38:04.816Z,22.50
2018-03-30T17:38:53.507Z,22.50
2018-03-30T17:39:53.506Z,16.88
2018-03-30T17:40:53.503Z,16.88
2018-03-30T17:45:09.864Z,11.25
2018-03-30T17:46:05.474Z,11.25
2018-03-30T17:47:04.850Z,5.63
2018-03-30T17:48:04.793Z,5.63
2018-03-30T17:49:04.783Z,5.63
2018-03-30T17:50:04.791Z,5.63
2018-03-30T17:51:04.791Z,5.63
2018-03-30T17:52:04.956Z,5.63
2018-03-30T17:53:04.790Z,0.00
2018-03-30T17:54:04.765Z,0.00
2018-03-30T17:55:04.771Z,0.00
2018-03-30T17:56:04.746Z,0.00
2018-03-30T17:57:04.758Z,0.00
2018-03-30T17:58:27.468Z,0.00
2018-03-30T17:59:04.748Z,0.00
2018-03-30T18:00:04.741Z,0.00
2018-03-30T18:01:04.751Z,0.00
2018-03-30T18:02:04.749Z,0.00
2018-03-30T18:03:04.916Z,0.00
2018-03-30T18:04:04.765Z,0.00
2018-03-30T18:05:04.803Z,0.00
2018-03-30T18:06:04.775Z,0.00
2018-03-30T18:07:04.821Z,0.00
2018-03-30T18:09:36.434Z,0.00
2018-03-30T18:10:36.974Z,0.00
2018-03-30T18:11:36.435Z,0.00
2018-03-30T18:12:36.833Z,0.00
2018-03-30T18:13:41.047Z,0.00
2018-03-30T18:14:37.024Z,0.00
2018-03-30T18:15:36.576Z,0.00
2018-03-30T18:16:36.413Z,0.00
2018-03-30T18:17:36.391Z,0.00
2018-03-30T18:18:36.458Z,0.00
2018-03-30T18:20:15.584Z,0.00
2018-03-30T18:20:36.369Z,0.00
2018-03-30T18:21:36.490Z,0.00
2018-03-30T18:22:36.376Z,0.00
2018-03-30T18:25:29.148Z,0.00
2018-03-30T18:26:08.041Z,0.00
2018-03-30T18:27:07.986Z,0.00
2018-03-30T18:28:07.993Z,0.00
2018-03-30T18:30:46.812Z,0.00
2018-03-30T18:31:41.121Z,0.00
2018-03-30T18:32:41.115Z,0.00
2018-03-30T18:34:03.049Z,0.00
2018-03-30T18:34:41.710Z,0.00
2018-03-30T18:35:41.115Z,0.00
2018-03-30T18:36:41.154Z,0.00
2018-03-30T18:37:41.134Z,0.00
2018-03-30T18:38:41.127Z,0.00
2018-03-30T18:46:38.870Z,0.00
2018-03-30T18:47:08.246Z,0.00
2018-03-30T18:48:08.251Z,0.00
2018-03-30T18:49:08.250Z,0.00
2018-03-30T18:50:08.278Z,0.00
2018-03-30T19:02:20.848Z,0.00
2018-03-30T19:02:59.203Z,0.00
2018-03-30T19:03:59.097Z,0.00
2018-03-30T19:04:59.104Z,0.00
2018-03-30T19:06:38.197Z,0.00
2018-03-30T19:06:59.120Z,0.00
2018-03-30T19:07:59.262Z,0.00
2018-03-30T19:08:59.061Z,0.00
2018-03-30T19:09:59.069Z,0.00
2018-03-30T19:12:59.677Z,0.00
2018-03-30T19:13:30.669Z,0.00
2018-03-30T19:14:30.669Z,0.00
2018-03-30T19:15:30.667Z,0.00
2018-03-30T19:16:49.386Z,0.00
2018-03-30T19:17:30.675Z,0.00
2018-03-30T19:18:30.662Z,0.00
2018-03-30T19:19:30.666Z,0.00
2018-03-30T19:20:30.650Z,0.00
2018-03-30T19:21:31.494Z,0.00
2018-03-30T19:22:31.315Z,0.00
2018-03-30T19:23:30.648Z,0.00
2018-03-30T19:24:30.647Z,0.00
2018-03-30T19:25:30.693Z,0.00
2018-03-30T19:26:30.680Z,0.00
2018-03-30T19:27:56.834Z,0.00
2018-03-30T19:28:30.704Z,0.00
2018-03-30T19:29:30.654Z,0.00
2018-03-30T19:30:30.647Z,0.00
2018-03-30T19:31:30.795Z,0.00
2018-03-30T19:32:30.718Z,0.00
2018-03-30T19:33:30.698Z,0.00
2018-03-30T19:34:30.695Z,0.00
2018-03-30T19:35:30.651Z,0.00
2018-03-30T19:36:30.676Z,0.00
2018-03-30T19:37:31.326Z,0.00
2018-03-30T19:38:31.498Z,0.00
2018-03-30T19:39:30.655Z,0.00
2018-03-30T19:40:30.649Z,0.00
2018-03-30T19:41:56.883Z,0.00
2018-03-30T19:42:30.649Z,0.00
2018-03-30T19:43:30.635Z,0.00
2018-03-30T19:44:30.632Z,0.00
2018-03-30T19:45:30.642Z,0.00
2018-03-30T19:46:30.664Z,0.00
2018-03-30T20:04:38.960Z,0.00
2018-03-30T20:05:20.356Z,0.00
2018-03-30T20:06:21.114Z,0.00
2018-03-30T20:07:20.389Z,0.00
2018-03-30T20:10:15.099Z,0.00
2018-03-30T20:10:52.045Z,0.00
2018-03-30T20:11:51.991Z,0.00
2018-03-30T20:12:52.049Z,0.00
2018-03-30T20:15:57.842Z,0.00
2018-03-30T20:16:23.551Z,0.00
2018-03-30T20:17:23.596Z,0.00
2018-03-30T20:20:36.561Z,0.00
2018-03-30T20:20:56.605Z,0.00
2018-03-30T20:21:56.355Z,0.00
2018-03-30T20:22:55.646Z,0.00
2018-03-30T20:23:55.707Z,0.00
2018-03-30T20:24:55.638Z,0.00
2018-03-30T20:25:55.827Z,0.00
2018-03-30T20:26:56.219Z,0.00
2018-03-30T20:27:55.641Z,0.00
2018-03-30T22:25:34.983Z,0.00
2018-03-30T22:26:16.860Z,0.00
2018-03-30T22:27:16.833Z,0.00
2018-03-30T22:28:16.837Z,0.00
2018-03-30T22:29:16.845Z,0.00
2018-03-30T22:43:49.567Z,0.00
2018-03-30T23:10:55.564Z,0.00
2018-03-30T23:11:31.456Z,0.00
2018-03-30T23:12:31.450Z,0.00
2018-03-30T23:13:31.456Z,0.00
